createdAt,value
2023-05-10T00:00:12.424Z,126.67
2023-05-10T00:01:12.485Z,124.74
2023-05-10T00:02:13.425Z,127.25
2023-05-10T00:03:12.767Z,124.52
2023-05-10T00:04:12.748Z,127.93
2023-05-10T00:05:12.802Z,123.49
2023-05-10T00:06:12.775Z,124.91
2023-05-10T00:07:12.824Z,128.76
2023-05-10T00:08:12.878Z,125.66
2023-05-10T00:09:12.908Z,125.45
2023-05-10T00:10:12.976Z,127.51
2023-05-10T00:11:12.998Z,123.97
2023-05-10T00:12:13.058Z,126.39
2023-05-10T00:13:13.137Z,124.52
2023-05-10T00:14:13.154Z,126.19
2023-05-10T00:15:13.245Z,126.71
2023-05-10T00:16:13.278Z,127.56
2023-05-10T00:17:13.283Z,124.72
2023-05-10T00:18:13.328Z,127.04
2023-05-10T00:19:13.388Z,125.76
2023-05-10T00:20:13.666Z,123.72
2023-05-10T00:21:13.438Z,123.35
2023-05-10T00:22:13.438Z,124.79
2023-05-10T00:23:13.476Z,126.01
2023-05-10T00:24:13.490Z,124.58
2023-05-10T00:25:13.519Z,122.69
2023-05-10T00:26:13.545Z,125.26
2023-05-10T00:27:13.610Z,126.58
2023-05-10T00:28:13.654Z,122.64
2023-05-10T00:29:13.693Z,124.24
2023-05-10T00:30:13.831Z,125.03
2023-05-10T00:31:13.784Z,123.54
2023-05-10T00:32:13.949Z,125.38
2023-05-10T00:33:13.894Z,123.81
2023-05-10T00:34:13.984Z,123.11
2023-05-10T00:35:13.975Z,124.79
2023-05-10T00:36:14.019Z,123.78
2023-05-10T00:37:14.050Z,123.34
2023-05-10T00:38:14.094Z,127.46
2023-05-10T00:39:14.128Z,124.45
2023-05-10T00:40:15.084Z,120.66
2023-05-10T00:41:14.221Z,126.32
2023-05-10T00:42:14.248Z,124.07
2023-05-10T00:43:14.292Z,123.99
2023-05-10T00:44:14.344Z,122.73
2023-05-10T00:45:14.849Z,122.86
2023-05-10T00:46:14.511Z,125.59
2023-05-10T00:47:14.516Z,122.92
2023-05-10T00:48:14.578Z,123.89
2023-05-10T00:49:14.633Z,127.32
2023-05-10T00:50:14.906Z,122.12
2023-05-10T00:51:14.762Z,123.86
2023-05-10T00:52:14.776Z,124.87
2023-05-10T00:53:14.842Z,124.66
2023-05-10T00:54:14.894Z,123.39
2023-05-10T00:55:14.947Z,120.46
2023-05-10T00:56:15.013Z,119.98
2023-05-10T00:57:15.072Z,120.79
2023-05-10T00:58:15.363Z,126.32
2023-05-10T00:59:15.191Z,123.44
2023-05-10T01:00:15.539Z,120.41
2023-05-10T01:01:15.317Z,120.84
2023-05-10T01:02:15.379Z,122.25
2023-05-10T01:03:15.450Z,122.67
2023-05-10T01:04:15.418Z,122.36
2023-05-10T01:05:15.515Z,120.65
2023-05-10T01:06:15.519Z,121.77
2023-05-10T01:07:15.577Z,120.53
2023-05-10T01:08:15.635Z,117.64
2023-05-10T01:09:15.689Z,121.98
2023-05-10T01:10:15.974Z,120.68
2023-05-10T01:11:15.803Z,123.61
2023-05-10T01:12:15.952Z,124.53
2023-05-10T01:13:15.992Z,123.57
2023-05-10T01:14:15.990Z,122.32
2023-05-10T01:15:16.052Z,119.46
2023-05-10T01:16:16.197Z,123.15
2023-05-10T01:17:16.174Z,119.34
2023-05-10T01:18:16.237Z,121.00
2023-05-10T01:19:16.303Z,122.32
2023-05-10T01:21:16.432Z,121.21
2023-05-10T01:22:16.616Z,120.19
2023-05-10T01:23:16.549Z,120.13
2023-05-10T01:24:16.616Z,118.90
2023-05-10T01:25:16.683Z,119.42
2023-05-10T01:26:16.747Z,119.86
2023-05-10T01:27:16.808Z,119.25
2023-05-10T01:28:16.864Z,118.66
2023-05-10T01:29:16.930Z,119.91
2023-05-10T01:30:16.989Z,118.02
2023-05-10T01:31:17.070Z,117.17
2023-05-10T01:32:17.094Z,117.00
2023-05-10T01:33:17.226Z,117.48
2023-05-10T01:34:17.231Z,118.19
2023-05-10T01:35:17.276Z,117.47
2023-05-10T01:36:17.347Z,118.61
2023-05-10T01:37:17.409Z,115.76
2023-05-10T01:38:17.467Z,119.15
2023-05-10T01:39:17.879Z,117.20
2023-05-10T01:40:17.667Z,115.15
2023-05-10T01:41:17.881Z,114.90
2023-05-10T01:42:18.370Z,115.05
2023-05-10T01:43:18.510Z,115.07
2023-05-10T01:44:17.820Z,114.96
2023-05-10T01:45:17.867Z,113.58
2023-05-10T01:46:17.986Z,116.73
2023-05-10T01:47:17.971Z,115.55
2023-05-10T01:48:18.022Z,114.63
2023-05-10T01:49:18.068Z,114.18
2023-05-10T01:50:18.321Z,114.39
2023-05-10T01:51:18.125Z,112.01
2023-05-10T01:52:18.136Z,115.91
2023-05-10T01:53:18.180Z,113.79
2023-05-10T01:54:18.184Z,114.70
2023-05-10T01:55:18.190Z,112.94
2023-05-10T01:56:18.285Z,111.75
2023-05-10T01:57:18.284Z,115.33
2023-05-10T01:58:18.308Z,113.72
2023-05-10T01:59:18.341Z,111.50
2023-05-10T02:00:18.549Z,111.96
2023-05-10T02:01:18.450Z,111.32
2023-05-10T02:02:18.463Z,111.23
2023-05-10T02:03:18.618Z,113.13
2023-05-10T02:04:18.583Z,110.56
2023-05-10T02:05:18.619Z,111.70
2023-05-10T02:06:18.683Z,109.33
2023-05-10T02:07:18.736Z,109.77
2023-05-10T02:08:18.774Z,113.15
2023-05-10T02:09:18.789Z,112.27
2023-05-10T02:10:19.043Z,113.14
2023-05-10T02:11:18.863Z,110.70
2023-05-10T02:12:19.385Z,110.77
2023-05-10T02:13:18.925Z,111.01
2023-05-10T02:14:18.934Z,110.87
2023-05-10T02:15:18.969Z,111.39
2023-05-10T02:16:19.029Z,108.60
2023-05-10T02:17:19.078Z,108.63
2023-05-10T02:18:19.132Z,109.80
2023-05-10T02:19:19.198Z,109.73
2023-05-10T02:20:19.374Z,111.06
2023-05-10T02:21:19.269Z,108.99
2023-05-10T02:22:19.353Z,111.96
2023-05-10T02:23:19.300Z,110.74
2023-05-10T02:24:19.353Z,108.95
2023-05-10T02:25:19.388Z,108.65
2023-05-10T02:26:19.419Z,108.89
2023-05-10T02:27:19.479Z,106.75
2023-05-10T02:28:19.480Z,107.91
2023-05-10T02:29:19.533Z,107.64
2023-05-10T02:30:19.568Z,108.70
2023-05-10T02:31:19.629Z,109.00
2023-05-10T02:32:19.670Z,104.13
2023-05-10T02:33:19.668Z,109.63
2023-05-10T02:34:19.714Z,105.99
2023-05-10T02:35:19.723Z,107.90
2023-05-10T02:36:19.774Z,107.42
2023-05-10T02:37:19.840Z,104.93
2023-05-10T02:38:19.879Z,105.77
2023-05-10T02:39:20.036Z,106.72
2023-05-10T02:40:20.068Z,108.03
2023-05-10T02:41:20.014Z,105.76
2023-05-10T02:42:20.042Z,107.70
2023-05-10T02:43:20.059Z,104.05
2023-05-10T02:44:20.114Z,104.17
2023-05-10T02:45:20.137Z,104.72
2023-05-10T02:46:20.162Z,107.15
2023-05-10T02:47:20.188Z,105.34
2023-05-10T02:48:20.208Z,103.10
2023-05-10T02:49:20.285Z,103.67
2023-05-10T02:50:20.310Z,105.22
2023-05-10T02:51:20.354Z,102.59
2023-05-10T02:52:20.404Z,102.09
2023-05-10T02:53:20.426Z,104.91
2023-05-10T02:54:20.487Z,104.13
2023-05-10T02:55:20.527Z,104.41
2023-05-10T02:56:20.568Z,101.71
2023-05-10T02:57:20.611Z,102.40
2023-05-10T02:58:20.652Z,103.66
2023-05-10T02:59:20.697Z,103.74
2023-05-10T03:00:21.418Z,102.47
2023-05-10T03:01:20.817Z,103.96
2023-05-10T03:02:20.839Z,104.91
2023-05-10T03:03:20.874Z,103.44
2023-05-10T03:04:20.921Z,102.60
2023-05-10T03:05:20.910Z,102.71
2023-05-10T03:06:21.043Z,103.80
2023-05-10T03:07:20.988Z,105.17
2023-05-10T03:08:21.036Z,101.83
2023-05-10T03:09:21.062Z,101.06
2023-05-10T03:10:21.087Z,100.45
2023-05-10T03:11:21.119Z,101.82
2023-05-10T03:12:21.119Z,103.46
2023-05-10T03:13:21.175Z,102.46
2023-05-10T03:14:21.138Z,103.18
2023-05-10T03:15:21.151Z,101.60
2023-05-10T03:16:21.176Z,103.97
2023-05-10T03:17:21.169Z,103.42
2023-05-10T03:18:21.168Z,100.56
2023-05-10T03:19:21.207Z,103.27
2023-05-10T03:20:21.217Z,101.49
2023-05-10T03:21:21.931Z,100.34
2023-05-10T03:22:21.288Z,101.46
2023-05-10T03:23:21.306Z,102.80
2023-05-10T03:24:21.342Z,100.41
2023-05-10T03:25:21.390Z,99.01
2023-05-10T03:26:21.437Z,100.43
2023-05-10T03:27:21.462Z,99.88
2023-05-10T03:28:21.501Z,100.46
2023-05-10T03:29:21.538Z,98.70
2023-05-10T03:30:21.534Z,98.81
2023-05-10T03:31:21.611Z,101.05
2023-05-10T03:32:21.586Z,97.52
2023-05-10T03:33:21.612Z,100.04
2023-05-10T03:34:21.704Z,98.18
2023-05-10T03:35:21.699Z,98.28
2023-05-10T03:36:21.693Z,98.90
2023-05-10T03:37:21.708Z,101.19
2023-05-10T03:38:21.733Z,95.87
2023-05-10T03:39:21.750Z,98.34
2023-05-10T03:40:21.743Z,96.50
2023-05-10T03:41:21.770Z,97.93
2023-05-10T03:42:21.768Z,95.18
2023-05-10T03:43:21.793Z,97.10
2023-05-10T03:44:21.815Z,94.98
2023-05-10T03:45:21.809Z,98.11
2023-05-10T03:46:21.839Z,96.53
2023-05-10T03:47:21.936Z,95.17
2023-05-10T03:48:21.845Z,97.49
2023-05-10T03:49:21.842Z,95.12
2023-05-10T03:50:21.859Z,96.74
2023-05-10T03:51:21.854Z,95.81
2023-05-10T03:52:21.867Z,97.90
2023-05-10T03:53:21.860Z,97.23
2023-05-10T03:54:21.940Z,96.61
2023-05-10T03:55:21.906Z,94.46
2023-05-10T03:56:21.916Z,94.83
2023-05-10T03:57:21.927Z,94.33
2023-05-10T03:58:21.930Z,95.04
2023-05-10T03:59:21.980Z,97.72
2023-05-10T04:00:21.978Z,95.85
2023-05-10T04:01:23.024Z,94.69
2023-05-10T04:02:22.223Z,97.72
2023-05-10T04:03:22.163Z,95.93
2023-05-10T04:04:22.036Z,93.87
2023-05-10T04:05:22.098Z,95.95
2023-05-10T04:06:22.168Z,94.71
2023-05-10T04:07:22.122Z,96.49
2023-05-10T04:08:22.123Z,95.39
2023-05-10T04:09:22.124Z,96.10
2023-05-10T04:10:22.163Z,95.56
2023-05-10T04:11:22.152Z,93.35
2023-05-10T04:12:22.148Z,96.66
2023-05-10T04:13:22.242Z,94.12
2023-05-10T04:14:22.158Z,95.36
2023-05-10T04:15:22.164Z,90.71
2023-05-10T04:16:22.197Z,96.24
2023-05-10T04:17:22.194Z,96.87
2023-05-10T04:18:22.174Z,94.82
2023-05-10T04:19:22.175Z,94.42
2023-05-10T04:20:22.168Z,93.03
2023-05-10T04:21:22.192Z,93.01
2023-05-10T04:22:22.182Z,91.31
2023-05-10T04:23:22.216Z,95.58
2023-05-10T04:24:22.184Z,94.18
2023-05-10T04:25:22.189Z,92.77
2023-05-10T04:26:22.185Z,92.12
2023-05-10T04:27:22.195Z,93.15
2023-05-10T04:28:22.200Z,92.08
2023-05-10T04:29:22.203Z,93.20
2023-05-10T04:30:22.213Z,93.02
2023-05-10T04:31:22.290Z,92.21
2023-05-10T04:32:22.285Z,91.35
2023-05-10T04:33:22.248Z,92.61
2023-05-10T04:34:22.369Z,90.04
2023-05-10T04:35:22.225Z,91.10
2023-05-10T04:36:22.331Z,91.18
2023-05-10T04:37:22.335Z,95.05
2023-05-10T04:38:22.342Z,90.08
2023-05-10T04:39:22.343Z,90.96
2023-05-10T04:40:22.337Z,87.50
2023-05-10T04:41:22.337Z,89.64
2023-05-10T04:42:22.413Z,90.43
2023-05-10T04:43:22.402Z,92.82
2023-05-10T04:44:22.397Z,88.88
2023-05-10T04:45:22.410Z,88.28
2023-05-10T04:46:22.464Z,91.43
2023-05-10T04:47:22.503Z,89.56
2023-05-10T04:48:22.467Z,87.75
2023-05-10T04:49:25.448Z,88.58
2023-05-10T04:50:22.454Z,91.53
2023-05-10T04:51:22.465Z,88.44
2023-05-10T04:52:22.446Z,87.74
2023-05-10T04:53:22.496Z,92.23
2023-05-10T04:54:22.426Z,90.68
2023-05-10T04:55:22.421Z,90.93
2023-05-10T04:56:22.417Z,87.11
2023-05-10T04:57:22.405Z,88.85
2023-05-10T04:58:22.407Z,88.44
2023-05-10T04:59:22.394Z,90.89
2023-05-10T05:00:22.403Z,87.93
2023-05-10T05:01:22.429Z,87.44
2023-05-10T05:02:22.423Z,89.94
2023-05-10T05:03:22.488Z,86.65
2023-05-10T05:04:22.360Z,87.81
2023-05-10T05:05:22.353Z,87.40
2023-05-10T05:06:22.354Z,90.02
2023-05-10T05:07:22.352Z,89.23
2023-05-10T05:08:22.329Z,87.94
2023-05-10T05:09:22.326Z,86.55
2023-05-10T05:10:22.328Z,90.58
2023-05-10T05:11:22.316Z,86.65
2023-05-10T05:12:22.323Z,87.36
2023-05-10T05:13:22.331Z,89.27
2023-05-10T05:14:22.309Z,87.13
2023-05-10T05:15:22.289Z,89.61
2023-05-10T05:16:22.391Z,88.97
2023-05-10T05:17:22.278Z,86.88
2023-05-10T05:18:22.280Z,86.10
2023-05-10T05:19:22.279Z,89.58
2023-05-10T05:20:22.276Z,87.76
2023-05-10T05:21:22.357Z,90.07
2023-05-10T05:22:22.268Z,89.84
2023-05-10T05:23:22.241Z,90.59
2023-05-10T05:24:22.245Z,87.87
2023-05-10T05:25:22.231Z,92.42
2023-05-10T05:26:22.226Z,96.78
2023-05-10T05:27:22.361Z,103.61
2023-05-10T05:28:22.206Z,106.87
2023-05-10T05:29:22.214Z,115.72
2023-05-10T05:30:22.203Z,120.28
2023-05-10T05:31:22.281Z,132.52
2023-05-10T05:32:22.186Z,141.21
2023-05-10T05:33:22.179Z,149.16
2023-05-10T05:34:22.884Z,160.87
2023-05-10T05:35:22.160Z,168.32
2023-05-10T05:36:22.154Z,179.07
2023-05-10T05:37:22.158Z,190.67
2023-05-10T05:38:22.140Z,199.00
2023-05-10T05:39:22.147Z,206.34
2023-05-10T05:40:22.116Z,216.46
2023-05-10T05:41:22.148Z,225.78
2023-05-10T05:42:22.118Z,231.65
2023-05-10T05:43:22.106Z,239.20
2023-05-10T05:44:22.093Z,250.00
2023-05-10T05:45:22.111Z,250.00
2023-05-10T05:46:22.098Z,250.00
2023-05-10T05:47:22.196Z,249.64
2023-05-10T05:48:22.100Z,248.80
2023-05-10T05:49:22.105Z,250.00
2023-05-10T05:50:22.042Z,247.82
2023-05-10T05:51:22.040Z,250.00
2023-05-10T05:52:22.039Z,249.03
2023-05-10T05:53:22.021Z,247.74
2023-05-10T05:54:22.024Z,249.08
2023-05-10T05:55:22.019Z,248.36
2023-05-10T05:56:22.011Z,249.64
2023-05-10T05:57:21.998Z,248.49
2023-05-10T05:58:22.004Z,250.00
2023-05-10T05:59:21.992Z,250.00
2023-05-10T06:00:21.997Z,249.92
2023-05-10T06:01:21.981Z,248.69
2023-05-10T06:02:22.077Z,248.69
2023-05-10T06:03:22.037Z,249.03
2023-05-10T06:04:22.061Z,250.00
2023-05-10T06:05:21.943Z,250.00
2023-05-10T06:06:21.945Z,247.50
2023-05-10T06:07:21.944Z,248.00
2023-05-10T06:08:21.945Z,250.00
2023-05-10T06:09:21.942Z,249.05
2023-05-10T06:10:21.917Z,248.72
2023-05-10T06:11:21.909Z,248.26
2023-05-10T06:12:22.603Z,249.48
2023-05-10T06:13:21.970Z,249.70
2023-05-10T06:14:21.909Z,248.37
2023-05-10T06:15:21.885Z,247.18
2023-05-10T06:16:21.952Z,250.00
2023-05-10T06:17:21.873Z,249.39
2023-05-10T06:18:21.872Z,248.67
2023-05-10T06:19:21.881Z,249.08
2023-05-10T06:20:21.934Z,247.37
2023-05-10T06:21:21.991Z,248.92
2023-05-10T06:22:22.031Z,247.81
2023-05-10T06:23:22.082Z,244.39
2023-05-10T06:24:22.144Z,229.17
2023-05-10T06:25:22.189Z,223.32
2023-05-10T06:26:22.212Z,206.56
2023-05-10T06:27:22.311Z,186.24
2023-05-10T06:28:22.248Z,142.35
2023-05-10T06:29:22.342Z,83.89
2023-05-10T06:30:22.313Z,45.73
2023-05-10T06:31:22.360Z,20.30
2023-05-10T06:32:22.383Z,14.64
2023-05-10T06:33:22.397Z,11.75
2023-05-10T06:34:22.404Z,9.69
2023-05-10T06:35:22.428Z,13.47
2023-05-10T06:36:22.456Z,23.40
2023-05-10T06:37:22.517Z,25.06
2023-05-10T06:38:22.543Z,25.00
2023-05-10T06:39:22.542Z,25.27
2023-05-10T06:40:22.568Z,29.46
2023-05-10T06:41:24.632Z,35.92
2023-05-10T06:42:22.666Z,43.01
2023-05-10T06:43:22.711Z,52.66
2023-05-10T06:44:23.010Z,59.05
2023-05-10T06:45:22.724Z,60.07
2023-05-10T06:46:22.810Z,65.06
2023-05-10T06:47:22.909Z,72.39
2023-05-10T06:48:23.454Z,78.25
2023-05-10T06:49:22.874Z,85.60
2023-05-10T06:50:22.897Z,86.94
2023-05-10T06:51:22.890Z,92.26
2023-05-10T06:52:22.887Z,98.50
2023-05-10T06:53:22.896Z,104.66
2023-05-10T06:54:22.957Z,76.32
2023-05-10T06:55:23.510Z,44.38
2023-05-10T06:56:23.007Z,25.00
2023-05-10T06:57:31.418Z,25.68
2023-05-10T06:58:24.052Z,19.67
2023-05-10T06:59:23.093Z,24.73
2023-05-10T07:00:23.106Z,27.22
2023-05-10T07:01:23.345Z,28.88
2023-05-10T07:02:23.158Z,29.48
2023-05-10T07:03:23.071Z,27.98
2023-05-10T07:04:23.083Z,26.57
2023-05-10T07:05:23.056Z,27.02
2023-05-10T07:06:33.101Z,27.08
2023-05-10T07:07:24.510Z,27.10
2023-05-10T07:08:22.975Z,26.28
2023-05-10T07:09:22.972Z,26.95
2023-05-10T07:10:22.964Z,28.44
2023-05-10T07:11:22.956Z,28.44
2023-05-10T07:12:23.039Z,28.13
2023-05-10T07:13:23.180Z,27.49
2023-05-10T07:14:22.930Z,27.69
2023-05-10T07:15:22.948Z,26.13
2023-05-10T07:16:23.015Z,25.00
2023-05-10T07:17:22.978Z,25.04
2023-05-10T07:18:22.929Z,28.00
2023-05-10T07:19:22.900Z,28.64
2023-05-10T07:20:22.874Z,31.42
2023-05-10T07:21:22.912Z,39.06
2023-05-10T07:22:23.512Z,43.20
2023-05-10T07:23:22.857Z,50.81
2023-05-10T07:24:22.858Z,58.85
2023-05-10T07:25:22.860Z,54.60
2023-05-10T07:26:22.840Z,50.51
2023-05-10T07:27:22.826Z,47.03
2023-05-10T07:28:22.825Z,46.85
2023-05-10T07:29:22.831Z,49.73
2023-05-10T07:30:22.849Z,49.92
2023-05-10T07:31:22.798Z,53.29
2023-05-10T07:32:22.973Z,51.33
2023-05-10T07:33:22.929Z,47.22
2023-05-10T07:34:22.857Z,43.15
2023-05-10T07:35:22.859Z,50.45
2023-05-10T07:36:22.869Z,46.78
2023-05-10T07:37:22.895Z,54.11
2023-05-10T07:38:22.983Z,54.12
2023-05-10T07:39:27.489Z,54.08
2023-05-10T07:40:23.937Z,54.43
2023-05-10T07:41:22.908Z,56.77
2023-05-10T07:42:22.898Z,62.17
2023-05-10T07:43:22.895Z,69.60
2023-05-10T07:44:22.880Z,84.15
2023-05-10T07:45:22.876Z,88.49
2023-05-10T07:46:22.913Z,88.08
2023-05-10T07:47:22.963Z,90.45
2023-05-10T07:48:22.881Z,88.91
2023-05-10T07:49:22.849Z,84.80
2023-05-10T07:50:22.833Z,88.22
2023-05-10T07:51:22.830Z,86.87
2023-05-10T07:52:23.047Z,89.52
2023-05-10T07:53:22.868Z,88.25
2023-05-10T07:54:22.814Z,86.24
2023-05-10T07:55:22.809Z,88.94
2023-05-10T07:56:22.811Z,86.47
2023-05-10T07:57:22.791Z,85.94
2023-05-10T07:58:22.832Z,84.76
2023-05-10T07:59:22.880Z,82.04
2023-05-10T08:00:22.944Z,87.52
2023-05-10T08:01:22.994Z,82.13
2023-05-10T08:02:23.099Z,80.45
2023-05-10T08:03:23.212Z,67.37
2023-05-10T08:04:23.187Z,56.70
2023-05-10T08:05:23.201Z,47.45
2023-05-10T08:06:23.209Z,40.62
2023-05-10T08:07:23.201Z,32.82
2023-05-10T08:08:23.212Z,28.35
2023-05-10T08:09:23.219Z,26.34
2023-05-10T08:10:23.235Z,25.00
2023-05-10T08:11:23.334Z,25.00
2023-05-10T08:12:23.321Z,26.64
2023-05-10T08:13:23.339Z,25.00
2023-05-10T08:14:23.488Z,25.91
2023-05-10T08:15:23.360Z,30.86
2023-05-10T08:16:23.481Z,29.65
2023-05-10T08:17:24.772Z,24.45
2023-05-10T08:18:23.478Z,20.26
2023-05-10T08:19:23.497Z,25.00
2023-05-10T08:20:23.549Z,25.16
2023-05-10T08:21:23.593Z,26.53
2023-05-10T08:22:23.607Z,31.77
2023-05-10T08:23:23.668Z,36.34
2023-05-10T08:24:23.713Z,40.22
2023-05-10T08:25:23.763Z,44.19
2023-05-10T08:26:23.805Z,46.41
2023-05-10T08:27:23.832Z,47.61
2023-05-10T08:28:24.533Z,52.17
2023-05-10T08:29:24.543Z,59.68
2023-05-10T08:30:23.888Z,67.37
2023-05-10T08:31:23.925Z,75.80
2023-05-10T08:32:23.914Z,81.52
2023-05-10T08:33:23.911Z,84.86
2023-05-10T08:34:24.055Z,90.20
2023-05-10T08:35:24.105Z,95.60
2023-05-10T08:36:24.033Z,99.25
2023-05-10T08:37:24.094Z,104.86
2023-05-10T08:38:24.131Z,109.13
2023-05-10T08:39:30.276Z,112.86
2023-05-10T08:40:25.191Z,113.03
2023-05-10T08:41:24.170Z,113.56
2023-05-10T08:42:24.181Z,115.50
2023-05-10T08:43:24.229Z,119.38
2023-05-10T08:44:24.164Z,124.71
2023-05-10T08:45:24.149Z,127.89
2023-05-10T08:46:24.225Z,128.81
2023-05-10T08:47:24.157Z,130.15
2023-05-10T08:48:24.118Z,131.36
2023-05-10T08:49:24.167Z,133.31
2023-05-10T08:50:24.113Z,134.45
2023-05-10T08:51:24.104Z,135.06
2023-05-10T08:52:24.115Z,139.97
2023-05-10T08:53:24.317Z,140.81
2023-05-10T08:54:24.087Z,143.09
2023-05-10T08:55:24.088Z,144.17
2023-05-10T08:56:24.073Z,145.68
2023-05-10T08:57:24.082Z,148.02
2023-05-10T08:58:24.064Z,148.23
2023-05-10T08:59:24.045Z,149.64
2023-05-10T09:00:24.100Z,149.79
2023-05-10T09:01:24.113Z,148.42
2023-05-10T09:02:24.098Z,149.90
2023-05-10T09:03:24.019Z,151.45
2023-05-10T09:04:24.109Z,151.86
2023-05-10T09:05:24.094Z,154.03
2023-05-10T09:06:24.002Z,154.88
2023-05-10T09:07:24.002Z,155.06
2023-05-10T09:08:23.981Z,154.11
2023-05-10T09:09:23.991Z,155.61
2023-05-10T09:10:24.058Z,155.43
2023-05-10T09:11:24.005Z,155.11
2023-05-10T09:12:24.005Z,156.69
2023-05-10T09:13:24.020Z,158.20
2023-05-10T09:14:24.053Z,157.42
2023-05-10T09:15:24.086Z,158.76
2023-05-10T09:16:24.156Z,160.44
2023-05-10T09:17:24.251Z,155.65
2023-05-10T09:18:25.980Z,144.77
2023-05-10T09:19:25.057Z,144.90
2023-05-10T09:20:24.253Z,149.23
2023-05-10T09:21:24.245Z,146.23
2023-05-10T09:22:24.230Z,146.56
2023-05-10T09:23:24.219Z,147.68
2023-05-10T09:24:24.211Z,151.59
2023-05-10T09:25:24.229Z,153.29
2023-05-10T09:26:24.211Z,154.56
2023-05-10T09:27:24.206Z,157.20
2023-05-10T09:28:24.192Z,158.53
2023-05-10T09:29:24.220Z,158.13
2023-05-10T09:30:24.197Z,158.95
2023-05-10T09:31:24.269Z,159.76
2023-05-10T09:32:24.207Z,162.32
2023-05-10T09:33:24.168Z,163.38
2023-05-10T09:34:24.178Z,164.84
2023-05-10T09:35:25.085Z,165.96
2023-05-10T09:36:25.071Z,168.49
2023-05-10T09:37:24.148Z,168.66
2023-05-10T09:38:24.127Z,169.30
2023-05-10T09:39:24.124Z,170.51
2023-05-10T09:40:24.130Z,171.06
2023-05-10T09:41:25.064Z,171.87
2023-05-10T09:42:25.070Z,172.27
2023-05-10T09:43:24.109Z,172.62
2023-05-10T09:44:24.110Z,173.42
2023-05-10T09:45:24.159Z,172.68
2023-05-10T09:46:24.189Z,173.17
2023-05-10T09:47:24.186Z,173.02
2023-05-10T09:48:24.148Z,173.86
2023-05-10T09:49:24.155Z,175.38
2023-05-10T09:50:24.566Z,176.22
2023-05-10T09:51:24.211Z,174.55
2023-05-10T09:52:24.222Z,177.06
2023-05-10T09:53:24.219Z,177.80
2023-05-10T09:54:24.252Z,179.24
2023-05-10T09:55:24.278Z,178.38
2023-05-10T09:56:24.263Z,177.38
2023-05-10T09:57:24.295Z,177.60
2023-05-10T09:58:24.307Z,179.03
2023-05-10T09:59:24.306Z,179.16
2023-05-10T10:00:25.074Z,179.56
2023-05-10T10:01:24.387Z,178.91
2023-05-10T10:02:24.440Z,179.26
2023-05-10T10:03:24.367Z,179.65
2023-05-10T10:04:24.426Z,180.38
2023-05-10T10:05:24.444Z,178.24
2023-05-10T10:06:29.968Z,177.03
2023-05-10T10:07:25.525Z,177.09
2023-05-10T10:08:24.425Z,177.41
2023-05-10T10:09:24.435Z,177.80
2023-05-10T10:10:24.412Z,178.90
2023-05-10T10:11:24.419Z,178.22
2023-05-10T10:12:24.416Z,177.99
2023-05-10T10:13:25.004Z,179.41
2023-05-10T10:14:24.384Z,179.07
2023-05-10T10:15:24.377Z,179.64
2023-05-10T10:16:24.386Z,178.46
2023-05-10T10:17:24.403Z,178.14
2023-05-10T10:18:24.380Z,179.00
2023-05-10T10:19:24.364Z,178.49
2023-05-10T10:20:24.386Z,177.93
2023-05-10T10:21:24.326Z,178.97
2023-05-10T10:22:24.325Z,179.64
2023-05-10T10:23:24.321Z,179.49
2023-05-10T10:24:24.314Z,179.70
2023-05-10T10:25:24.322Z,179.59
2023-05-10T10:26:24.340Z,179.54
2023-05-10T10:27:24.354Z,179.41
2023-05-10T10:28:25.392Z,180.21
2023-05-10T10:29:24.442Z,179.54
2023-05-10T10:30:24.459Z,178.55
2023-05-10T10:31:24.567Z,179.60
2023-05-10T10:32:25.126Z,180.04
2023-05-10T10:33:28.816Z,179.71
2023-05-10T10:34:24.521Z,179.76
2023-05-10T10:35:24.504Z,179.95
2023-05-10T10:36:24.505Z,180.29
2023-05-10T10:37:25.140Z,179.42
2023-05-10T10:38:24.489Z,180.90
2023-05-10T10:39:24.482Z,180.53
2023-05-10T10:40:24.473Z,179.77
2023-05-10T10:41:24.488Z,178.32
2023-05-10T10:42:24.462Z,178.47
2023-05-10T10:43:24.519Z,178.34
2023-05-10T10:44:24.506Z,179.13
2023-05-10T10:45:24.493Z,178.53
2023-05-10T10:46:24.528Z,179.13
2023-05-10T10:47:24.527Z,180.27
2023-05-10T10:48:24.395Z,179.26
2023-05-10T10:49:24.394Z,178.46
2023-05-10T10:50:24.393Z,179.02
2023-05-10T10:51:24.403Z,177.45
2023-05-10T10:52:24.414Z,178.53
2023-05-10T10:53:24.408Z,177.92
2023-05-10T10:54:24.376Z,178.44
2023-05-10T10:55:25.162Z,178.27
2023-05-10T10:56:24.360Z,178.14
2023-05-10T10:57:24.346Z,177.04
2023-05-10T10:58:25.111Z,176.22
2023-05-10T10:59:24.355Z,177.64
2023-05-10T11:00:24.326Z,177.60
2023-05-10T11:01:24.368Z,175.95
2023-05-10T11:02:24.382Z,178.56
2023-05-10T11:03:24.426Z,178.39
2023-05-10T11:04:24.481Z,177.58
2023-05-10T11:05:24.435Z,177.27
2023-05-10T11:06:24.614Z,176.97
2023-05-10T11:07:24.505Z,176.61
2023-05-10T11:08:24.528Z,177.58
2023-05-10T11:09:24.539Z,177.56
2023-05-10T11:10:24.554Z,176.73
2023-05-10T11:11:24.586Z,177.68
2023-05-10T11:12:24.614Z,177.87
2023-05-10T11:13:24.649Z,179.27
2023-05-10T11:14:24.682Z,178.76
2023-05-10T11:15:24.692Z,180.08
2023-05-10T11:16:24.890Z,181.29
2023-05-10T11:17:24.845Z,179.63
2023-05-10T11:18:24.791Z,178.81
2023-05-10T11:19:24.808Z,179.12
2023-05-10T11:20:24.806Z,178.92
2023-05-10T11:21:24.853Z,178.68
2023-05-10T11:22:24.856Z,179.70
2023-05-10T11:23:25.606Z,180.05
2023-05-10T11:24:24.881Z,179.22
2023-05-10T11:25:24.914Z,178.86
2023-05-10T11:26:24.934Z,179.03
2023-05-10T11:27:24.948Z,179.79
2023-05-10T11:28:25.011Z,181.58
2023-05-10T11:29:24.985Z,179.29
2023-05-10T11:30:25.018Z,180.10
2023-05-10T11:31:25.145Z,180.42
2023-05-10T11:32:25.167Z,179.62
2023-05-10T11:33:25.064Z,178.87
2023-05-10T11:34:25.121Z,179.02
2023-05-10T11:35:25.098Z,178.33
2023-05-10T11:36:25.130Z,179.38
2023-05-10T11:37:25.148Z,179.42
2023-05-10T11:38:25.176Z,177.74
2023-05-10T11:39:25.192Z,177.00
2023-05-10T11:40:25.218Z,177.62
2023-05-10T11:41:25.269Z,178.00
2023-05-10T11:42:25.271Z,177.57
2023-05-10T11:43:25.425Z,176.89
2023-05-10T11:44:25.339Z,177.26
2023-05-10T11:45:25.371Z,176.87
2023-05-10T11:46:25.444Z,176.56
2023-05-10T11:47:25.436Z,177.26
2023-05-10T11:48:25.438Z,176.06
2023-05-10T11:49:25.469Z,174.91
2023-05-10T11:50:25.500Z,176.38
2023-05-10T11:51:25.634Z,175.06
2023-05-10T11:52:25.569Z,174.89
2023-05-10T11:53:25.988Z,175.45
2023-05-10T11:54:25.622Z,175.05
2023-05-10T11:55:25.650Z,174.13
2023-05-10T11:56:25.706Z,174.56
2023-05-10T11:57:25.710Z,174.38
2023-05-10T11:58:25.734Z,172.84
2023-05-10T11:59:25.770Z,173.56
2023-05-10T12:00:25.799Z,172.69
2023-05-10T12:01:25.846Z,172.92
2023-05-10T12:02:25.978Z,172.54
2023-05-10T12:03:26.002Z,173.61
2023-05-10T12:04:25.929Z,173.35
2023-05-10T12:05:25.942Z,171.23
2023-05-10T12:06:25.986Z,172.69
2023-05-10T12:07:25.996Z,172.31
2023-05-10T12:08:26.016Z,170.89
2023-05-10T12:09:39.633Z,172.75
2023-05-10T12:10:27.044Z,172.77
2023-05-10T12:11:26.075Z,171.46
2023-05-10T12:12:26.036Z,171.93
2023-05-10T12:13:26.024Z,171.36
2023-05-10T12:14:26.628Z,171.84
2023-05-10T12:15:26.039Z,172.30
2023-05-10T12:16:26.039Z,171.04
2023-05-10T12:17:26.089Z,171.40
2023-05-10T12:18:26.008Z,171.11
2023-05-10T12:19:25.984Z,171.15
2023-05-10T12:20:26.080Z,171.97
2023-05-10T12:21:26.041Z,170.26
2023-05-10T12:22:25.982Z,170.47
2023-05-10T12:23:25.968Z,170.14
2023-05-10T12:24:25.973Z,170.49
2023-05-10T12:25:25.957Z,170.84
2023-05-10T12:26:25.987Z,169.30
2023-05-10T12:27:26.055Z,168.67
2023-05-10T12:28:26.053Z,166.41
2023-05-10T12:29:26.077Z,164.48
2023-05-10T12:30:26.649Z,162.24
2023-05-10T12:31:26.220Z,161.00
2023-05-10T12:32:26.257Z,159.68
2023-05-10T12:33:26.257Z,159.50
2023-05-10T12:34:26.303Z,157.24
2023-05-10T12:35:26.337Z,155.97
2023-05-10T12:36:26.373Z,157.44
2023-05-10T12:37:26.420Z,156.98